createdAt,value
2023-05-01T00:01:06.907Z,100894.81
2023-05-01T00:03:33.765Z,100888.59
2023-05-01T00:06:01.711Z,100885.03
2023-05-01T00:08:29.523Z,100885.97
2023-05-01T00:10:56.030Z,100881.53
2023-05-01T00:13:22.633Z,100869.88
2023-05-01T00:15:49.176Z,100876.22
2023-05-01T00:18:15.936Z,100861.88
2023-05-01T00:20:42.415Z,100877.13
2023-05-01T00:23:08.891Z,100861.03
2023-05-01T00:25:36.577Z,100856.53
2023-05-01T00:28:03.014Z,100849.38
2023-05-01T00:30:29.483Z,100855.59
2023-05-01T00:32:55.942Z,100857.38
2023-05-01T00:35:22.501Z,100843.09
2023-05-01T00:37:48.949Z,100847.59
2023-05-01T00:40:15.515Z,100845.81
2023-05-01T00:42:43.305Z,100836.84
2023-05-01T00:45:10.520Z,100840.31
2023-05-01T00:47:37.246Z,100834.88
2023-05-01T00:50:04.092Z,100841.09
2023-05-01T00:52:30.760Z,100824.94
2023-05-01T00:54:57.927Z,100821.28
2023-05-01T00:57:24.893Z,100821.25
2023-05-01T00:59:52.690Z,100813.16
2023-05-01T01:02:19.831Z,100814.94
2023-05-01T01:04:48.111Z,100814.88
2023-05-01T01:07:19.162Z,100805.94
2023-05-01T01:10:01.062Z,100809.53
2023-05-01T01:12:32.316Z,100803.16
2023-05-01T01:15:12.848Z,100800.47
2023-05-01T01:17:53.126Z,100796.91
2023-05-01T01:20:31.201Z,100791.47
2023-05-01T01:23:13.366Z,100787.94
2023-05-01T01:26:12.075Z,100788.84
2023-05-01T01:29:13.986Z,100798.75
2023-05-01T01:31:53.640Z,100794.31
2023-05-01T01:34:26.414Z,100787.13
2023-05-01T01:37:00.546Z,100779.06
2023-05-01T01:39:31.683Z,100788.88
2023-05-01T01:41:58.841Z,100785.25
2023-05-01T01:44:30.594Z,100788.84
2023-05-01T01:46:59.476Z,100776.31
2023-05-01T01:49:29.286Z,100773.63
2023-05-01T01:51:56.828Z,100773.63
2023-05-01T01:54:29.814Z,100770.00
2023-05-01T01:56:57.682Z,100760.16
2023-05-01T01:59:25.892Z,100761.97
2023-05-01T02:01:56.074Z,100765.56
2023-05-01T02:04:24.594Z,100761.13
2023-05-01T02:06:54.092Z,100758.44
2023-05-01T02:09:22.963Z,100760.28
2023-05-01T02:11:50.765Z,100746.00
2023-05-01T02:14:18.716Z,100755.91
2023-05-01T02:16:46.380Z,100751.41
2023-05-01T02:19:14.528Z,100752.34
2023-05-01T02:21:42.074Z,100747.09
2023-05-01T02:24:11.493Z,100742.72
2023-05-01T02:26:42.607Z,100741.00
2023-05-01T02:29:09.795Z,100748.16
2023-05-01T02:31:36.385Z,100734.78
2023-05-01T02:34:03.970Z,100733.97
2023-05-01T02:36:30.409Z,100736.72
2023-05-01T02:38:56.847Z,100727.81
2023-05-01T02:41:26.253Z,100730.50
2023-05-01T02:43:58.088Z,100725.19
2023-05-01T02:46:27.023Z,100727.03
2023-05-01T02:48:55.006Z,100723.53
2023-05-01T02:51:23.372Z,100728.06
2023-05-01T02:53:50.188Z,100712.00
2023-05-01T02:56:21.024Z,100712.91
2023-05-01T02:58:49.057Z,100709.34
2023-05-01T03:01:15.516Z,100710.31
2023-05-01T03:03:42.019Z,100705.00
2023-05-01T03:06:08.512Z,100696.97
2023-05-01T03:08:35.097Z,100689.84
2023-05-01T03:11:04.948Z,100696.13
2023-05-01T03:13:31.320Z,100697.06
2023-05-01T03:15:59.807Z,100688.19
2023-05-01T03:18:26.233Z,100689.09
2023-05-01T03:20:52.774Z,100689.09
2023-05-01T03:23:19.531Z,100680.16
2023-05-01T03:25:46.016Z,100679.28
2023-05-01T03:28:12.834Z,100680.16
2023-05-01T03:30:39.751Z,100673.00
2023-05-01T03:33:07.647Z,100674.81
2023-05-01T03:35:34.356Z,100667.69
2023-05-01T03:38:00.852Z,100669.50
2023-05-01T03:41:02.781Z,100649.84
2023-05-01T03:43:41.236Z,100663.25
2023-05-01T03:46:16.076Z,100653.44
2023-05-01T03:48:43.876Z,100657.91
2023-05-01T03:51:10.470Z,100649.88
2023-05-01T03:53:37.742Z,100656.13
2023-05-01T03:56:06.222Z,100646.28
2023-05-01T03:58:32.682Z,100659.66
2023-05-01T04:00:59.202Z,100660.50
2023-05-01T04:03:25.808Z,100649.78
2023-05-01T04:05:54.849Z,100652.44
2023-05-01T04:08:21.374Z,100652.44
2023-05-01T04:10:47.793Z,100652.44
2023-05-01T04:13:14.281Z,100648.84
2023-05-01T04:15:44.530Z,100647.06
2023-05-01T04:18:11.192Z,100654.16
2023-05-01T04:20:37.678Z,100655.03
2023-05-01T04:23:05.420Z,100650.47
2023-05-01T04:25:31.871Z,100653.06
2023-05-01T04:28:05.101Z,100661.06
2023-05-01T04:30:31.752Z,100650.28
2023-05-01T04:32:58.280Z,100651.13
2023-05-01T04:35:24.824Z,100660.91
2023-05-01T04:37:51.387Z,100653.69
2023-05-01T04:40:19.168Z,100651.81
2023-05-01T04:42:45.564Z,100644.56
2023-05-01T04:45:14.082Z,100640.91
2023-05-01T04:47:40.639Z,100639.03
2023-05-01T04:50:07.489Z,100649.69
2023-05-01T04:52:34.566Z,100633.47
2023-05-01T04:55:02.680Z,100641.44
2023-05-01T04:57:32.658Z,100642.25
2023-05-01T05:00:01.621Z,100639.44
2023-05-01T05:02:29.575Z,100642.03
2023-05-01T05:04:56.290Z,100649.00
2023-05-01T05:07:23.448Z,100640.88
2023-05-01T05:10:19.366Z,100637.13
2023-05-01T05:12:59.842Z,100638.63
2023-05-01T05:15:26.999Z,100653.78
2023-05-01T05:17:56.352Z,100639.06
2023-05-01T05:20:24.129Z,100629.16
2023-05-01T05:22:50.893Z,100635.38
2023-05-01T05:25:22.036Z,100620.03
2023-05-01T05:27:48.654Z,100627.31
2023-05-01T05:30:16.806Z,100627.22
2023-05-01T05:32:46.614Z,100619.09
2023-05-01T05:35:17.086Z,100615.34
2023-05-01T05:37:46.060Z,100623.28
2023-05-01T05:40:13.532Z,100617.75
2023-05-01T05:42:51.525Z,100607.38
2023-05-01T05:45:26.290Z,100614.94
2023-05-01T05:47:53.270Z,100612.19
2023-05-01T05:50:20.196Z,100607.38
2023-05-01T05:52:47.925Z,100603.69
2023-05-01T05:55:15.259Z,100608.22
2023-05-01T05:57:52.861Z,100610.03
2023-05-01T06:00:20.996Z,100610.25
2023-05-01T06:02:50.191Z,100609.47
2023-05-01T06:05:18.486Z,100601.91
2023-05-01T06:07:45.333Z,100595.28
2023-05-01T06:10:11.848Z,100597.81
2023-05-01T06:12:41.375Z,100584.22
2023-05-01T06:15:15.192Z,100586.34
2023-05-01T06:17:45.824Z,100602.66
2023-05-01T06:20:13.073Z,100589.81
2023-05-01T06:22:40.155Z,100595.25
2023-05-01T06:25:17.082Z,100591.31
2023-05-01T06:27:44.583Z,100596.72
2023-05-01T06:30:11.729Z,100591.13
2023-05-01T06:32:40.908Z,100588.38
2023-05-01T06:35:10.031Z,100581.25
2023-05-01T06:37:36.630Z,100571.75
2023-05-01T06:40:03.985Z,100581.28
2023-05-01T06:42:30.737Z,100578.84
2023-05-01T06:45:01.124Z,100574.31
2023-05-01T06:47:28.028Z,100565.31
2023-05-01T06:49:54.696Z,100570.91
2023-05-01T06:52:22.714Z,100565.94
2023-05-01T06:54:49.435Z,100562.75
2023-05-01T06:57:16.312Z,100561.16
2023-05-01T06:59:42.915Z,100565.75
2023-05-01T07:02:09.588Z,100569.22
2023-05-01T07:04:36.095Z,100571.00
2023-05-01T07:07:02.649Z,100563.41
2023-05-01T07:09:30.626Z,100564.34
2023-05-01T07:11:58.623Z,100560.28
2023-05-01T07:14:25.302Z,100553.38
2023-05-01T07:16:54.742Z,100555.06
2023-05-01T07:19:21.391Z,100565.66
2023-05-01T07:21:48.019Z,100550.84
2023-05-01T07:24:14.868Z,100553.31
2023-05-01T07:26:42.732Z,100549.34
2023-05-01T07:29:11.521Z,100547.56
2023-05-01T07:31:38.410Z,100544.63
2023-05-01T07:34:05.357Z,100544.91
2023-05-01T07:36:32.077Z,100532.88
2023-05-01T07:38:58.754Z,100540.00
2023-05-01T07:41:25.559Z,100528.22
2023-05-01T07:43:54.969Z,100530.94
2023-05-01T07:46:21.810Z,100522.50
2023-05-01T07:48:48.734Z,100528.94
2023-05-01T07:51:15.682Z,100518.09
2023-05-01T07:53:42.322Z,100523.38
2023-05-01T07:56:09.685Z,100528.94
2023-05-01T07:58:36.881Z,100525.59
2023-05-01T08:01:06.215Z,100524.28
2023-05-01T08:03:33.010Z,100518.50
2023-05-01T08:05:59.764Z,100516.75
2023-05-01T08:08:26.310Z,100519.19
2023-05-01T08:10:55.152Z,100511.34
2023-05-01T08:13:22.037Z,100512.50
2023-05-01T08:15:56.332Z,100506.09
2023-05-01T08:18:26.589Z,100499.47
2023-05-01T08:20:53.252Z,100504.19
2023-05-01T08:23:34.920Z,100506.16
2023-05-01T08:26:03.700Z,100499.19
2023-05-01T08:28:30.721Z,100496.97
2023-05-01T08:31:00.092Z,100503.47
2023-05-01T08:33:29.795Z,100497.81
2023-05-01T08:36:00.837Z,100496.88
2023-05-01T08:38:27.550Z,100506.66
2023-05-01T08:40:57.271Z,100502.81
2023-05-01T08:43:28.143Z,100494.22
2023-05-01T08:46:16.283Z,100488.91
2023-05-01T08:48:46.079Z,100492.69
2023-05-01T08:51:16.220Z,100486.50
2023-05-01T08:53:50.889Z,100487.31
2023-05-01T08:56:21.671Z,100470.53
2023-05-01T08:58:50.131Z,100478.72
2023-05-01T09:01:22.344Z,100474.91
2023-05-01T09:03:52.840Z,100469.97
2023-05-01T09:06:21.053Z,100465.47
2023-05-01T09:08:50.257Z,100469.03
2023-05-01T09:11:18.614Z,100462.75
2023-05-01T09:13:45.363Z,100456.72
2023-05-01T09:16:12.387Z,100453.50
2023-05-01T09:18:39.350Z,100443.34
2023-05-01T09:21:07.398Z,100447.59
2023-05-01T09:23:35.512Z,100442.72
2023-05-01T09:26:06.939Z,100438.47
2023-05-01T09:28:39.930Z,100433.63
2023-05-01T09:31:20.929Z,100429.00
2023-05-01T09:33:58.812Z,100432.19
2023-05-01T09:36:28.245Z,100435.59
2023-05-01T09:38:54.709Z,100426.91
2023-05-01T09:41:21.325Z,100421.72
2023-05-01T09:43:52.180Z,100424.38
2023-05-01T09:46:19.104Z,100411.72
2023-05-01T09:48:53.142Z,100414.00
2023-05-01T09:51:21.296Z,100410.06
2023-05-01T09:53:49.828Z,100406.25
2023-05-01T09:56:16.307Z,100409.34
2023-05-01T09:58:45.997Z,100410.97
2023-05-01T10:01:12.515Z,100406.38
2023-05-01T10:03:39.325Z,100395.97
2023-05-01T10:06:11.884Z,100390.00
2023-05-01T10:08:45.896Z,100385.84
2023-05-01T10:11:14.118Z,100380.19
2023-05-01T10:13:40.904Z,100381.53
2023-05-01T10:16:23.081Z,100380.84
2023-05-01T10:18:49.731Z,100377.38
2023-05-01T10:21:16.326Z,100378.50
2023-05-01T10:23:42.895Z,100383.66
2023-05-01T10:26:16.292Z,100380.13
2023-05-01T10:28:44.209Z,100374.47
2023-05-01T10:31:12.799Z,100369.91
2023-05-01T10:33:40.390Z,100367.88
2023-05-01T10:36:11.728Z,100370.69
2023-05-01T10:38:41.182Z,100364.59
2023-05-01T10:41:07.724Z,100350.38
2023-05-01T10:43:35.576Z,100354.25
2023-05-01T10:46:27.289Z,100336.81
2023-05-01T10:48:55.073Z,100333.44
2023-05-01T10:51:25.671Z,100341.00
2023-05-01T10:54:22.558Z,100331.53
2023-05-01T10:56:49.393Z,100319.31
2023-05-01T10:59:17.188Z,100324.06
2023-05-01T11:01:44.929Z,100311.00
2023-05-01T11:04:45.146Z,100318.88
2023-05-01T11:07:15.595Z,100304.22
2023-05-01T11:09:43.220Z,100305.41
2023-05-01T11:12:11.490Z,100314.69
2023-05-01T11:15:05.209Z,100298.72
2023-05-01T11:17:47.730Z,100309.47
2023-05-01T11:20:46.925Z,100301.00
2023-05-01T11:23:20.698Z,100297.50
2023-05-01T11:25:47.857Z,100297.25
2023-05-01T11:28:19.139Z,100284.91
2023-05-01T11:30:47.012Z,100279.94
2023-05-01T11:33:14.229Z,100280.69
2023-05-01T11:35:41.419Z,100278.97
2023-05-01T11:38:16.980Z,100263.56
2023-05-01T11:40:43.469Z,100259.84
2023-05-01T11:43:09.964Z,100255.84
2023-05-01T11:45:37.456Z,100258.63
2023-05-01T11:48:14.556Z,100252.09
2023-05-01T11:50:41.234Z,100255.84
2023-05-01T11:53:11.229Z,100252.09
2023-05-01T11:55:37.734Z,100249.63
2023-05-01T11:58:04.571Z,100238.66
2023-05-01T12:00:33.894Z,100226.53
2023-05-01T12:03:02.716Z,100221.91
2023-05-01T12:05:32.215Z,100226.13
2023-05-01T12:10:40.571Z,100226.97
2023-05-01T12:13:08.824Z,100221.72
2023-05-01T12:15:37.020Z,100219.88
2023-05-01T12:18:04.362Z,100215.50
2023-05-01T12:20:36.558Z,100213.81
2023-05-01T12:23:03.289Z,100207.06
2023-05-01T12:25:30.132Z,100200.53
2023-05-01T12:27:57.186Z,100203.06
2023-05-01T12:30:27.811Z,100206.97
2023-05-01T12:32:54.929Z,100205.72
2023-05-01T12:35:22.089Z,100201.19
2023-05-01T12:37:49.844Z,100201.59
2023-05-01T12:40:16.457Z,100193.63
2023-05-01T12:42:42.870Z,100188.56
2023-05-01T12:45:10.470Z,100193.09
2023-05-01T12:47:37.040Z,100188.94
2023-05-01T12:50:05.038Z,100195.97
2023-05-01T12:52:32.400Z,100194.91
2023-05-01T12:55:04.406Z,100197.97
2023-05-01T12:57:31.403Z,100197.59
2023-05-01T13:00:03.035Z,100182.91
2023-05-01T13:02:30.858Z,100183.94
2023-05-01T13:05:06.267Z,100172.69
2023-05-01T13:07:32.783Z,100178.03
2023-05-01T13:09:59.778Z,100165.63
2023-05-01T13:12:28.522Z,100169.63
2023-05-01T13:14:55.323Z,100172.66
2023-05-01T13:17:23.588Z,100176.16
2023-05-01T13:19:53.755Z,100170.03
2023-05-01T13:22:28.647Z,100176.88
2023-05-01T13:24:55.172Z,100172.13
2023-05-01T13:27:22.113Z,100172.97
2023-05-01T13:29:53.571Z,100163.06
2023-05-01T13:32:20.138Z,100162.16
2023-05-01T13:34:46.626Z,100165.56
2023-05-01T13:37:13.349Z,100165.09
2023-05-01T13:39:41.258Z,100173.72
2023-05-01T13:42:07.708Z,100172.75
2023-05-01T13:44:42.769Z,100166.72
2023-05-01T13:47:15.035Z,100167.41
2023-05-01T13:49:42.177Z,100166.41
2023-05-01T13:52:11.153Z,100170.47
2023-05-01T13:54:40.328Z,100160.78
2023-05-01T13:57:06.717Z,100154.53
2023-05-01T13:59:38.304Z,100141.53
2023-05-01T14:02:18.903Z,100142.50
2023-05-01T14:04:45.529Z,100146.78
2023-05-01T14:07:17.004Z,100145.75
2023-05-01T14:09:44.476Z,100142.78
2023-05-01T14:12:13.241Z,100150.63
2023-05-01T14:14:47.290Z,100144.09
2023-05-01T14:17:15.282Z,100146.47
2023-05-01T14:19:41.906Z,100136.59
2023-05-01T14:22:08.340Z,100129.84
2023-05-01T14:24:36.759Z,100138.69
2023-05-01T14:27:03.289Z,100130.56
2023-05-01T14:29:29.882Z,100131.84
2023-05-01T14:31:56.259Z,100137.66
2023-05-01T14:34:25.913Z,100125.56
2023-05-01T14:36:54.654Z,100132.09
2023-05-01T14:39:21.133Z,100129.22
2023-05-01T14:41:47.872Z,100133.25
2023-05-01T14:44:15.716Z,100128.44
2023-05-01T14:46:44.293Z,100125.22
2023-05-01T14:49:17.145Z,100121.50
2023-05-01T14:51:44.917Z,100121.31
2023-05-01T14:54:12.461Z,100117.03
2023-05-01T14:56:39.173Z,100124.56
2023-05-01T14:59:05.717Z,100126.59
2023-05-01T15:01:32.203Z,100127.75
2023-05-01T15:03:59.921Z,100121.63
2023-05-01T15:06:28.391Z,100128.72
2023-05-01T15:08:56.219Z,100116.25
2023-05-01T15:11:22.664Z,100111.63
2023-05-01T15:13:49.097Z,100112.75
2023-05-01T15:16:15.898Z,100119.03
2023-05-01T15:18:42.542Z,100117.19
2023-05-01T15:21:08.996Z,100108.25
2023-05-01T15:23:35.466Z,100108.19
2023-05-01T15:26:03.425Z,100107.94
2023-05-01T15:28:29.972Z,100105.66
2023-05-01T15:30:56.414Z,100100.84
2023-05-01T15:33:22.864Z,100103.22
2023-05-01T15:35:49.299Z,100110.00
2023-05-01T15:38:15.704Z,100100.44
2023-05-01T15:40:43.371Z,100102.78
2023-05-01T15:43:11.187Z,100107.63
2023-05-01T15:45:37.740Z,100095.13
2023-05-01T15:48:04.469Z,100098.84
2023-05-01T15:50:31.076Z,100099.84
2023-05-01T15:52:57.520Z,100097.38
2023-05-01T15:55:23.875Z,100101.44
2023-05-01T15:57:50.293Z,100096.28
2023-05-01T16:00:18.893Z,100093.97
2023-05-01T16:02:45.464Z,100099.59
2023-05-01T16:05:13.237Z,100092.81
2023-05-01T16:07:39.666Z,100099.28
2023-05-01T16:10:08.050Z,100097.88
2023-05-01T16:12:34.620Z,100098.75
2023-05-01T16:15:01.483Z,100104.44
2023-05-01T16:17:31.581Z,100105.66
2023-05-01T16:20:00.286Z,100104.22
2023-05-01T16:22:27.716Z,100097.22
2023-05-01T16:24:54.156Z,100099.94
2023-05-01T16:27:20.733Z,100098.94
2023-05-01T16:29:47.250Z,100092.50
2023-05-01T16:32:16.318Z,100088.63
2023-05-01T16:34:44.310Z,100089.91
2023-05-01T16:37:13.218Z,100090.22
2023-05-01T16:39:39.651Z,100100.63
2023-05-01T16:42:06.098Z,100093.59
2023-05-01T16:44:35.530Z,100094.91
2023-05-01T16:47:02.056Z,100096.22
2023-05-01T16:49:28.578Z,100094.66
2023-05-01T16:51:56.420Z,100096.06
2023-05-01T16:54:23.863Z,100095.41
2023-05-01T16:56:50.335Z,100088.47
2023-05-01T16:59:16.764Z,100093.09
2023-05-01T17:04:22.557Z,100082.97
2023-05-01T17:06:58.741Z,100076.91
2023-05-01T17:09:25.403Z,100091.00
2023-05-01T17:11:56.046Z,100095.38
2023-05-01T17:14:22.715Z,100096.56
2023-05-01T17:16:50.471Z,100094.66
2023-05-01T17:19:19.830Z,100101.44
2023-05-01T17:21:46.690Z,100107.81
2023-05-01T17:24:14.723Z,100112.72
2023-05-01T17:26:41.670Z,100112.78
2023-05-01T17:29:08.462Z,100105.25
2023-05-01T17:31:35.018Z,100107.22
2023-05-01T17:34:01.597Z,100100.59
2023-05-01T17:36:29.375Z,100113.50
2023-05-01T17:38:58.307Z,100108.41
2023-05-01T17:42:02.762Z,100126.56
2023-05-01T17:44:39.017Z,100116.06
2023-05-01T17:47:16.488Z,100116.06
2023-05-01T17:49:43.693Z,100119.75
2023-05-01T17:55:24.722Z,100123.88
2023-05-01T17:58:19.574Z,100132.16
2023-05-01T18:01:03.033Z,100132.53
2023-05-01T18:04:01.951Z,100143.69
2023-05-01T18:06:45.073Z,100138.88
2023-05-01T18:12:56.570Z,100154.81
2023-05-01T18:15:46.629Z,100156.06
2023-05-01T18:18:50.922Z,100161.72
2023-05-01T18:21:30.221Z,100163.94
2023-05-01T18:24:07.680Z,100167.75
2023-05-01T18:26:59.610Z,100160.47
2023-05-01T18:29:58.485Z,100153.63
2023-05-01T18:32:47.736Z,100163.94
2023-05-01T18:38:13.803Z,100157.91
2023-05-01T18:40:51.432Z,100151.41
2023-05-01T18:43:22.788Z,100156.25
2023-05-01T18:45:49.466Z,100157.59
2023-05-01T18:48:16.210Z,100156.34
2023-05-01T18:50:54.124Z,100159.34
2023-05-01T18:53:27.764Z,100161.28
2023-05-01T18:55:54.451Z,100176.09
2023-05-01T18:58:21.274Z,100165.53
2023-05-01T19:00:47.839Z,100178.38
2023-05-01T19:03:23.510Z,100182.06
2023-05-01T19:05:51.598Z,100188.22
2023-05-01T19:08:19.290Z,100179.75
2023-05-01T19:10:46.098Z,100181.69
2023-05-01T19:13:12.731Z,100169.50
2023-05-01T19:15:39.346Z,100174.16
2023-05-01T19:18:08.516Z,100182.44
2023-05-01T19:20:35.324Z,100190.84
2023-05-01T19:23:03.577Z,100183.19
2023-05-01T19:25:30.157Z,100181.69
2023-05-01T19:28:00.302Z,100195.22
2023-05-01T19:30:29.877Z,100186.56
2023-05-01T19:32:56.911Z,100188.69
2023-05-01T19:35:35.723Z,100184.19
2023-05-01T19:41:33.678Z,100193.41
2023-05-01T19:44:11.549Z,100185.41
2023-05-01T19:46:38.168Z,100179.06
2023-05-01T19:49:04.763Z,100181.78
2023-05-01T19:51:31.362Z,100189.97
2023-05-01T19:54:02.143Z,100181.16
2023-05-01T19:56:28.746Z,100181.25
2023-05-01T19:58:57.174Z,100191.88
2023-05-01T20:01:23.884Z,100181.31
2023-05-01T20:03:50.543Z,100181.31
2023-05-01T20:06:17.555Z,100184.81
2023-05-01T20:08:44.085Z,100185.91
2023-05-01T20:11:12.022Z,100193.19
2023-05-01T20:13:38.484Z,100185.00
2023-05-01T20:16:05.529Z,100188.69
2023-05-01T20:18:32.185Z,100190.47
2023-05-01T20:20:58.775Z,100194.94
2023-05-01T20:23:25.297Z,100198.63
2023-05-01T20:25:51.811Z,100197.84
2023-05-01T20:28:19.991Z,100201.38
2023-05-01T20:30:47.854Z,100201.50
2023-05-01T20:33:16.369Z,100202.81
2023-05-01T20:35:43.369Z,100198.47
2023-05-01T20:38:09.884Z,100206.88
2023-05-01T20:40:37.382Z,100212.34
2023-05-01T20:43:04.122Z,100206.16
2023-05-01T20:45:33.066Z,100212.50
2023-05-01T20:48:01.029Z,100223.22
2023-05-01T20:50:27.639Z,100212.50
2023-05-01T20:52:56.208Z,100221.31
2023-05-01T20:55:23.755Z,100215.47
2023-05-01T20:57:51.178Z,100224.59
2023-05-01T21:00:18.088Z,100225.63
2023-05-01T21:02:46.211Z,100211.44
2023-05-01T21:05:15.101Z,100213.22
2023-05-01T21:07:41.847Z,100218.00
2023-05-01T21:10:10.565Z,100210.91
2023-05-01T21:12:38.205Z,100225.88
2023-05-01T21:15:05.647Z,100228.75
2023-05-01T21:17:33.375Z,100227.25
2023-05-01T21:20:01.752Z,100232.75
2023-05-01T21:22:28.738Z,100238.34
2023-05-01T21:24:57.850Z,100234.66
2023-05-01T21:27:26.403Z,100241.00
2023-05-01T21:29:56.064Z,100237.47
2023-05-01T21:32:29.179Z,100239.47
2023-05-01T21:34:55.832Z,100244.09
2023-05-01T21:37:24.027Z,100237.22
2023-05-01T21:39:51.118Z,100233.69
2023-05-01T21:42:17.629Z,100241.06
2023-05-01T21:44:44.243Z,100237.53
2023-05-01T21:47:11.503Z,100232.38
2023-05-01T21:49:39.338Z,100240.66
2023-05-01T21:52:06.292Z,100238.09
2023-05-01T21:54:35.706Z,100248.16
2023-05-01T21:57:03.208Z,100238.38
2023-05-01T21:59:34.639Z,100251.03
2023-05-01T22:02:04.286Z,100239.50
2023-05-01T22:04:30.898Z,100246.75
2023-05-01T22:06:57.413Z,100244.28
2023-05-01T22:09:23.983Z,100244.41
2023-05-01T22:11:51.888Z,100241.06
2023-05-01T22:14:18.394Z,100247.34
2023-05-01T22:16:45.000Z,100244.72
2023-05-01T22:19:14.129Z,100255.59
2023-05-01T22:21:40.787Z,100260.09
2023-05-01T22:24:07.357Z,100266.66
2023-05-01T22:26:33.885Z,100255.06
2023-05-01T22:29:01.815Z,100259.72
2023-05-01T22:31:28.532Z,100255.16
2023-05-01T22:33:55.201Z,100247.09
2023-05-01T22:36:21.798Z,100257.97
2023-05-01T22:38:54.706Z,100259.88
2023-05-01T22:41:21.284Z,100262.59
2023-05-01T22:43:47.828Z,100263.53
2023-05-01T22:46:15.854Z,100262.66
2023-05-01T22:48:42.541Z,100266.50
2023-05-01T22:51:09.054Z,100263.97
2023-05-01T22:53:35.647Z,100265.00
2023-05-01T22:56:02.252Z,100252.38
2023-05-01T22:58:29.008Z,100268.44
2023-05-01T23:00:55.626Z,100257.72
2023-05-01T23:03:23.496Z,100263.31
2023-05-01T23:05:50.932Z,100259.63
2023-05-01T23:08:17.469Z,100278.66
2023-05-01T23:10:43.865Z,100264.94
2023-05-01T23:13:17.069Z,100268.75
2023-05-01T23:15:45.529Z,100276.97
2023-05-01T23:18:14.036Z,100274.41
2023-05-01T23:20:43.786Z,100271.75
2023-05-01T23:23:13.612Z,100267.34
2023-05-01T23:25:45.058Z,100276.44
2023-05-01T23:28:12.553Z,100265.91
2023-05-01T23:30:40.504Z,100264.97
2023-05-01T23:33:10.515Z,100267.81
2023-05-01T23:35:37.001Z,100271.50
2023-05-01T23:38:04.741Z,100277.97
2023-05-01T23:40:31.191Z,100274.34
2023-05-01T23:42:57.686Z,100273.53
2023-05-01T23:45:24.145Z,100265.53
2023-05-01T23:47:50.738Z,100262.28
2023-05-01T23:50:17.415Z,100273.16
2023-05-01T23:52:43.983Z,100267.19
2023-05-01T23:55:11.723Z,100268.25
2023-05-01T23:57:38.408Z,100263.09
